CheckWX is a tool to help pilots better visualize weather data.  It is not intended as a substitute for an official pre-flight weather briefing.

15:28:56 UTC

KGYY TAF
Gary / Chicago International Airport
Gary, Indiana, USA
KGYY 171137Z 1712/1812 29006KT P6SM BKN120 FM171500 33010KT P6SM SCT040 FM171900 01008KT P6SM BKN040 FM180100 VRB03KT P6SM BKN250

Oct-17@
12:00 UTC

Oct-17 @ 12:00 UTC

Oct-17@
15:00 UTC

Oct-17 @ 15:00 UTC

KGYY 171137Z 1712/1812 29006KT P6SM BKN120

Expired

Wind
  • 290° at 6 KTS
Cloud Levels
  • Broken at 12,000' AGL

Oct-17@
15:00 UTC

Oct-17 @ 15:00 UTC

Oct-17@
19:00 UTC

Oct-17 @ 19:00 UTC

FM171500 33010KT P6SM SCT040

From

From Standard forecast or significant change

Wind
  • 330° at 10 KTS
Cloud Levels
  • Scattered at 4,000' AGL

Oct-17@
19:00 UTC

Oct-17 @ 19:00 UTC

Oct-18@
01:00 UTC

Oct-18 @ 01:00 UTC

FM171900 01008KT P6SM BKN040

From

From Standard forecast or significant change

Wind
  • 010° at 8 KTS
Cloud Levels
  • Broken at 4,000' AGL

Oct-18@
01:00 UTC

Oct-18 @ 01:00 UTC

Oct-18@
12:00 UTC

Oct-18 @ 12:00 UTC

FM180100 VRB03KT P6SM BKN250

From

From Standard forecast or significant change

Wind
  • Variable at 3 KTS
Cloud Levels
  • Broken at 25,000' AGL